Time;durP1;ratioP1;P1;durP2;ratioP2;P2;SDS_P1;SDS_P2;PMS_P1;PMS_P2;Temp;Humidity;BMP_temperature;BMP_pressure;BME280_temperature;BME280_humidity;BME280_pressure;Samples;Min_cycle;Max_cycle;Signal;HPM_P1;HPM_P2
2022/08/19 00:00:15;;;;;;;6.22;5.63;;;;;;;24.43;43.68;94667.66;5034162;28;20378;-62
2022/08/19 00:02:41;;;;;;;8.95;5.43;;;;;;;24.34;44.18;94668.31;5033071;28;20228;-62
2022/08/19 00:05:08;;;;;;;7.57;5.72;;;;;;;24.45;44.11;94672.78;5035576;28;20198;-61
2022/08/19 00:07:34;;;;;;;6.32;5.20;;;;;;;24.35;44.39;94680.66;5031178;28;20214;-63
2022/08/19 00:09:59;;;;;;;7.13;5.65;;;;;;;24.09;45.30;94669.53;5040991;28;20218;-62
2022/08/19 00:12:25;;;;;;;10.68;5.82;;;;;;;24.21;44.96;94672.94;5045603;28;20214;-62
2022/08/19 00:14:50;;;;;;;6.60;5.90;;;;;;;24.25;44.88;94669.78;5038593;28;20252;-62
2022/08/19 00:17:16;;;;;;;9.02;6.10;;;;;;;24.18;45.43;94668.06;5041095;28;20209;-62
2022/08/19 00:19:41;;;;;;;6.50;5.70;;;;;;;24.05;45.88;94675.63;5039833;28;20209;-62
2022/08/19 00:22:08;;;;;;;6.07;5.45;;;;;;;24.06;46.57;94677.25;5039916;28;20222;-62
2022/08/19 00:24:35;;;;;;;6.82;6.05;;;;;;;24.14;45.97;94688.44;5038143;28;20222;-62
2022/08/19 00:27:01;;;;;;;6.95;5.80;;;;;;;24.03;46.09;94692.00;5034845;28;20228;-62
2022/08/19 00:29:27;;;;;;;6.57;5.60;;;;;;;23.94;46.50;94682.72;5043887;28;20799;-62
2022/08/19 00:31:54;;;;;;;6.82;6.22;;;;;;;23.98;46.59;94692.72;5036320;28;20267;-61
2022/08/19 00:34:21;;;;;;;6.75;6.07;;;;;;;23.97;46.14;94683.03;5042328;28;20717;-61
2022/08/19 00:36:47;;;;;;;7.18;6.47;;;;;;;23.95;46.67;94687.00;5039673;28;20272;-62
2022/08/19 00:39:15;;;;;;;7.03;6.45;;;;;;;23.54;47.77;94686.28;5038379;28;20225;-62
2022/08/19 00:41:41;;;;;;;7.53;5.88;;;;;;;23.66;47.32;94686.25;5033260;28;20303;-62
2022/08/19 00:44:13;;;;;;;6.85;6.25;;;;;;;23.73;46.64;94687.72;5038570;28;20214;-62
2022/08/19 00:46:43;;;;;;;7.45;6.22;;;;;;;23.69;46.95;94678.50;5038672;28;20240;-63
2022/08/19 00:49:14;;;;;;;9.85;6.15;;;;;;;23.75;46.90;94676.75;5037940;28;20654;-61
2022/08/19 00:51:42;;;;;;;10.90;6.70;;;;;;;23.69;46.99;94673.13;5038187;28;20226;-61
2022/08/19 00:54:08;;;;;;;8.80;6.57;;;;;;;23.66;47.30;94676.31;5043411;28;20225;-62
2022/08/19 00:56:35;;;;;;;6.72;6.07;;;;;;;23.73;46.85;94682.34;5035468;28;20225;-62
2022/08/19 00:59:02;;;;;;;6.78;6.03;;;;;;;23.63;47.18;94676.81;5039801;28;20288;-62
2022/08/19 01:01:27;;;;;;;6.45;5.85;;;;;;;23.62;47.25;94680.53;5039958;28;20213;-62
2022/08/19 01:03:53;;;;;;;6.53;6.00;;;;;;;23.57;47.09;94677.75;5044366;28;20264;-62
2022/08/19 01:06:18;;;;;;;7.10;5.45;;;;;;;23.56;47.17;94681.50;5038602;28;20221;-61
2022/08/19 01:08:44;;;;;;;6.50;6.00;;;;;;;23.53;47.48;94684.66;5036042;28;20342;-62
2022/08/19 01:11:10;;;;;;;7.35;6.03;;;;;;;23.21;48.08;94679.78;5039811;28;20198;-62
2022/08/19 01:13:35;;;;;;;9.80;6.20;;;;;;;23.38;47.75;94687.06;5037576;28;20252;-62
2022/08/19 01:16:05;;;;;;;7.10;6.32;;;;;;;23.39;47.87;94681.47;5036211;28;20218;-61
2022/08/19 01:18:32;;;;;;;6.65;6.05;;;;;;;23.33;48.30;94685.06;5037354;28;20222;-62
2022/08/19 01:21:20;;;;;;;9.48;6.93;;;;;;;23.14;48.71;94678.28;5040633;28;20213;-62
2022/08/19 01:23:46;;;;;;;6.93;6.22;;;;;;;23.05;49.01;94675.16;5039513;28;20213;-62
2022/08/19 01:26:21;;;;;;;6.45;5.85;;;;;;;23.00;49.30;94677.75;5036771;28;20202;-61
2022/08/19 01:28:49;;;;;;;7.32;6.50;;;;;;;23.07;49.08;94678.44;5032999;28;20701;-62
2022/08/19 01:31:30;;;;;;;7.35;6.57;;;;;;;23.09;49.13;94682.50;5040754;28;20263;-62
2022/08/19 01:33:56;;;;;;;6.65;6.10;;;;;;;23.20;48.92;94683.53;5036549;28;20253;-62
2022/08/19 01:36:45;;;;;;;7.53;6.78;;;;;;;23.14;48.90;94683.63;5034634;28;20213;-61
2022/08/19 01:39:13;;;;;;;8.18;6.50;;;;;;;23.13;48.95;94685.50;5038208;28;20600;-61
2022/08/19 01:41:39;;;;;;;8.23;6.57;;;;;;;23.10;49.10;94677.94;5036175;28;20229;-61
2022/08/19 01:44:06;;;;;;;7.72;6.90;;;;;;;23.13;49.48;94677.47;5032564;28;20224;-62
2022/08/19 01:46:32;;;;;;;6.47;5.97;;;;;;;23.19;49.08;94684.56;5033900;28;20230;-62
2022/08/19 01:48:58;;;;;;;7.07;5.65;;;;;;;23.04;49.62;94677.03;5035472;28;20751;-62
2022/08/19 01:51:24;;;;;;;6.65;6.15;;;;;;;23.06;49.37;94682.94;5033774;28;20218;-63
2022/08/19 01:53:50;;;;;;;7.38;6.60;;;;;;;22.90;49.97;94676.44;5038773;28;20222;-63
2022/08/19 01:56:17;;;;;;;8.10;7.28;;;;;;;22.99;49.95;94684.13;5041442;28;20293;-63
2022/08/19 01:58:49;;;;;;;7.13;6.43;;;;;;;22.96;49.81;94673.84;5042433;28;20297;-63
2022/08/19 02:01:14;;;;;;;6.93;6.07;;;;;;;22.84;50.37;94679.25;5034436;28;20214;-62
2022/08/19 02:03:40;;;;;;;7.20;6.50;;;;;;;23.05;49.95;94680.53;5035358;28;20264;-62
2022/08/19 02:06:06;;;;;;;7.03;6.28;;;;;;;22.84;50.61;94682.75;5035042;28;20724;-61
2022/08/19 02:08:34;;;;;;;8.15;6.55;;;;;;;22.84;50.81;94688.09;5038268;28;20288;-62
2022/08/19 02:11:00;;;;;;;8.63;6.95;;;;;;;22.79;50.63;94684.50;5038550;28;20288;-63
2022/08/19 02:13:27;;;;;;;7.45;6.78;;;;;;;22.83;50.34;94678.44;5038551;28;20349;-62
2022/08/19 02:15:53;;;;;;;7.55;6.60;;;;;;;22.02;52.96;94672.03;5044781;28;20256;-62
2022/08/19 02:18:18;;;;;;;8.82;6.65;;;;;;;22.37;51.87;94685.50;5035254;28;20316;-62
2022/08/19 02:20:46;;;;;;;7.15;6.53;;;;;;;22.51;51.11;94677.19;5035193;28;20222;-62
2022/08/19 02:23:12;;;;;;;7.70;6.60;;;;;;;22.45;51.41;94682.47;5034716;28;20716;-62
2022/08/19 02:25:39;;;;;;;7.00;6.40;;;;;;;22.43;51.86;94679.19;5033834;28;20217;-62
2022/08/19 02:28:05;;;;;;;7.50;6.75;;;;;;;22.41;51.78;94683.16;5035199;28;20245;-62
2022/08/19 02:30:31;;;;;;;7.65;6.93;;;;;;;;;;5045539;28;20229;-61
2022/08/19 02:32:56;;;;;;;7.35;6.53;;;;;;;22.40;51.63;94685.03;5037573;28;20229;-62
2022/08/19 02:35:22;;;;;;;7.57;6.88;;;;;;;22.43;51.43;94681.06;5033698;28;20237;-63
2022/08/19 02:40:34;;;;;;;9.57;6.07;;;;;;;22.39;51.49;94683.38;5034675;28;20263;-62
2022/08/19 02:43:00;;;;;;;7.55;6.85;;;;;;;22.39;51.47;94682.56;5037067;28;20253;-62
2022/08/19 02:45:26;;;;;;;7.68;6.90;;;;;;;22.29;51.93;94680.44;5040272;28;20221;-63
2022/08/19 02:47:52;;;;;;;11.88;6.97;;;;;;;22.33;51.58;94688.84;5043938;28;20214;-61
2022/08/19 02:50:18;;;;;;;7.47;6.63;;;;;;;22.30;51.37;94684.78;5043805;28;20329;-62
2022/08/19 02:52:44;;;;;;;7.55;6.88;;;;;;;22.33;51.40;94691.53;5043485;28;20280;-62
2022/08/19 02:55:10;;;;;;;9.50;6.88;;;;;;;22.29;51.21;94688.50;5033261;28;20230;-63
2022/08/19 02:57:35;;;;;;;8.95;7.13;;;;;;;22.29;51.08;94691.16;5036920;28;20222;-63
2022/08/19 03:00:04;;;;;;;9.38;7.00;;;;;;;22.31;51.14;94699.78;5033816;28;20225;-63
2022/08/19 03:02:30;;;;;;;7.65;6.82;;;;;;;22.20;51.78;94697.94;5038449;28;20214;-63
2022/08/19 03:04:55;;;;;;;8.35;6.70;;;;;;;22.20;51.89;94697.94;5036632;28;20210;-63
2022/08/19 03:07:21;;;;;;;8.63;7.00;;;;;;;22.15;51.95;94700.44;5043798;28;20233;-62
2022/08/19 03:09:46;;;;;;;7.65;6.70;;;;;;;22.15;51.96;94697.78;5041717;28;20229;-62
2022/08/19 03:12:12;;;;;;;11.98;6.65;;;;;;;22.19;51.69;94697.13;5038031;28;20221;-62
2022/08/19 03:14:37;;;;;;;7.18;6.53;;;;;;;22.17;51.06;94687.66;5040436;28;20218;-62
2022/08/19 03:17:04;;;;;;;7.85;7.05;;;;;;;22.11;51.43;94680.56;5033924;28;20194;-63
2022/08/19 03:19:31;;;;;;;8.90;6.68;;;;;;;22.12;51.59;94688.34;5043375;28;20591;-62
2022/08/19 03:21:57;;;;;;;8.65;6.97;;;;;;;22.16;51.63;94675.28;5041430;28;20230;-62
2022/08/19 03:24:23;;;;;;;7.25;6.43;;;;;;;22.12;51.87;94674.13;5036532;28;20218;-63
2022/08/19 03:26:52;;;;;;;10.38;6.47;;;;;;;22.13;52.23;94675.75;5046581;28;20269;-62
2022/08/19 03:29:20;;;;;;;8.30;6.47;;;;;;;22.07;52.52;94684.72;5046968;28;20446;-62
2022/08/19 03:31:46;;;;;;;9.40;6.72;;;;;;;21.95;52.83;94679.38;5039684;28;20197;-62
2022/08/19 03:34:14;;;;;;;8.35;7.00;;;;;;;21.97;52.63;94686.13;5039800;28;20237;-62
2022/08/19 03:36:39;;;;;;;8.00;7.20;;;;;;;21.86;53.04;94686.91;5033092;28;20308;-63
2022/08/19 03:39:05;;;;;;;8.48;7.60;;;;;;;21.79;53.16;94689.69;5042213;28;20214;-63
2022/08/19 03:41:36;;;;;;;8.88;7.20;;;;;;;21.75;53.85;94693.84;5044077;28;20244;-63
2022/08/19 03:44:02;;;;;;;8.63;7.05;;;;;;;21.31;54.80;94697.75;5041339;28;20221;-63
2022/08/19 03:46:30;;;;;;;8.88;6.50;;;;;;;21.64;53.98;94696.50;5037884;28;20577;-63
2022/08/19 03:48:57;;;;;;;7.82;7.13;;;;;;;21.56;54.15;94708.34;5046196;28;20305;-63
2022/08/19 03:51:26;;;;;;;7.97;7.05;;;;;;;21.65;54.13;94706.16;5038685;28;20316;-63
2022/08/19 03:53:54;;;;;;;8.43;7.18;;;;;;;21.65;54.20;94708.84;5038840;28;20280;-63
2022/08/19 03:56:20;;;;;;;11.65;7.85;;;;;;;21.65;54.28;94707.00;5041636;28;20205;-62
2022/08/19 03:58:46;;;;;;;9.02;7.57;;;;;;;21.76;53.82;94716.09;5036613;28;20206;-63
2022/08/19 04:01:17;;;;;;;8.95;8.02;;;;;;;21.92;53.27;94719.97;5040565;28;20252;-62
2022/08/19 04:03:45;;;;;;;7.90;7.20;;;;;;;21.87;53.59;94720.66;5038426;28;20239;-62
2022/08/19 04:06:16;;;;;;;9.80;7.57;;;;;;;21.68;54.10;94724.44;5044011;28;20228;-63
2022/08/19 04:08:44;;;;;;;8.65;7.95;;;;;;;21.87;53.11;94728.69;5042238;28;20218;-62
2022/08/19 04:11:12;;;;;;;8.95;7.65;;;;;;;21.83;53.13;94722.16;5036449;28;20189;-61
2022/08/19 04:13:38;;;;;;;9.82;8.55;;;;;;;21.95;52.88;94728.38;5042073;28;20221;-62
2022/08/19 04:16:05;;;;;;;17.77;8.48;;;;;;;21.70;53.73;94722.34;5041694;28;20224;-62
2022/08/19 04:18:31;;;;;;;8.70;8.00;;;;;;;21.80;53.77;94731.47;5038525;28;20222;-62
2022/08/19 04:20:57;;;;;;;8.95;8.05;;;;;;;21.90;53.28;94732.78;5035741;28;20217;-62
2022/08/19 04:23:23;;;;;;;10.25;7.90;;;;;;;21.94;53.39;94733.94;5039846;28;20212;-62
2022/08/19 04:25:48;;;;;;;10.30;7.95;;;;;;;21.82;53.51;94725.88;5038711;28;20620;-62
2022/08/19 04:28:14;;;;;;;8.98;8.10;;;;;;;21.91;52.99;94735.22;5038789;28;20217;-62
2022/08/19 04:30:47;;;;;;;8.60;7.60;;;;;;;21.93;53.03;94737.66;5038227;28;20225;-62
2022/08/19 04:33:15;;;;;;;11.35;8.73;;;;;;;21.97;52.95;94744.19;5044886;28;20221;-62
2022/08/19 04:35:43;;;;;;;12.35;8.25;;;;;;;21.93;53.33;94737.66;5036285;28;20222;-62
2022/08/19 04:38:09;;;;;;;11.30;8.70;;;;;;;22.09;52.98;94739.69;5036412;28;20221;-62
2022/08/19 04:43:24;;;;;;;8.85;7.90;;;;;;;21.97;53.42;94733.47;5038185;28;20243;-62
2022/08/19 04:45:51;;;;;;;10.00;8.05;;;;;;;22.11;52.65;94734.09;5038111;28;20432;-62
2022/08/19 04:48:17;;;;;;;8.73;7.85;;;;;;;22.30;51.97;94724.16;5035172;28;20234;-63
2022/08/19 04:50:43;;;;;;;10.30;8.05;;;;;;;22.09;52.35;94728.97;5041197;28;20293;-61
2022/08/19 04:53:10;;;;;;;10.77;7.57;;;;;;;22.17;52.13;94722.47;5038825;28;20198;-61
2022/08/19 04:55:39;;;;;;;9.30;8.38;;;;;;;22.21;51.83;94729.00;5039928;28;20315;-61
2022/08/19 04:58:05;;;;;;;8.90;8.10;;;;;;;22.23;51.16;94735.75;5037686;28;20314;-61
2022/08/19 05:00:30;;;;;;;7.72;7.05;;;;;;;22.31;50.97;94726.56;5037634;28;20238;-61
2022/08/19 05:02:56;;;;;;;7.80;7.00;;;;;;;22.25;51.86;94735.53;5036291;28;20229;-62
2022/08/19 05:05:21;;;;;;;11.02;8.10;;;;;;;22.27;51.95;94738.00;5035759;28;20210;-61
2022/08/19 05:07:47;;;;;;;11.27;8.48;;;;;;;22.32;51.99;94732.75;5043102;28;20202;-61
2022/08/19 05:10:12;;;;;;;9.38;8.45;;;;;;;22.57;51.38;94741.38;5032961;28;20318;-61
2022/08/19 05:12:38;;;;;;;9.90;8.60;;;;;;;22.70;50.19;94743.03;5037790;28;20317;-61
2022/08/19 05:15:08;;;;;;;10.05;8.93;;;;;;;22.59;50.50;94743.84;5034402;28;20276;-61
2022/08/19 05:17:33;;;;;;;10.23;9.10;;;;;;;22.64;50.46;94739.41;5039280;28;20218;-61
2022/08/19 05:22:46;;;;;;;13.40;9.60;;;;;;;22.79;49.57;94736.25;5032567;28;20232;-60
2022/08/19 05:25:18;;;;;;;11.30;9.10;;;;;;;22.86;49.88;94741.50;5043539;28;20218;-61
2022/08/19 05:27:43;;;;;;;13.30;9.48;;;;;;;22.90;49.77;94738.09;5039572;28;20543;-61
2022/08/19 05:30:11;;;;;;;10.65;8.55;;;;;;;22.95;49.06;94739.25;5035863;28;20568;-61
2022/08/19 05:32:37;;;;;;;10.75;8.13;;;;;;;23.13;48.40;94746.38;5037911;28;20241;-60
2022/08/19 05:35:04;;;;;;;9.02;8.13;;;;;;;23.15;48.53;94745.09;5034090;28;20224;-61
2022/08/19 05:37:29;;;;;;;9.15;8.25;;;;;;;23.21;48.39;94738.78;5032502;28;20210;-61
2022/08/19 05:39:55;;;;;;;10.68;7.78;;;;;;;23.28;47.48;94739.47;5033772;28;20253;-61
2022/08/19 05:42:22;;;;;;;8.43;7.72;;;;;;;23.30;47.66;94750.75;5040212;28;20293;-61
2022/08/19 05:44:48;;;;;;;10.02;9.00;;;;;;;23.17;47.87;94750.22;5042333;28;20243;-61
2022/08/19 05:47:16;;;;;;;10.75;7.97;;;;;;;23.26;47.72;94743.44;5039149;28;20202;-61
2022/08/19 05:49:42;;;;;;;9.00;8.05;;;;;;;23.44;47.36;94753.16;5037695;28;20226;-60
2022/08/19 05:52:11;;;;;;;9.73;8.32;;;;;;;23.41;47.68;94748.28;5035151;28;20225;-60
2022/08/19 05:54:40;;;;;;;8.90;8.05;;;;;;;23.50;47.95;94747.69;5026797;28;20230;-59
2022/08/19 05:57:06;;;;;;;9.52;8.60;;;;;;;23.74;47.27;94747.63;5030201;28;20217;-60
2022/08/19 05:59:31;;;;;;;9.27;8.25;;;;;;;23.64;47.51;94740.16;5031677;28;20198;-60
2022/08/19 06:01:57;;;;;;;8.10;7.40;;;;;;;23.81;47.26;94750.16;5027026;28;20229;-61
2022/08/19 06:04:23;;;;;;;10.30;9.20;;;;;;;23.73;47.81;94749.47;5028109;28;20280;-61
2022/08/19 06:06:51;;;;;;;10.50;7.20;;;;;;;23.78;47.70;94751.44;5029519;28;20225;-61
2022/08/19 06:09:18;;;;;;;8.27;7.45;;;;;;;23.69;47.44;94751.00;5026873;28;20222;-61
2022/08/19 06:11:58;;;;;;;8.60;7.18;;;;;;;23.90;46.42;94751.41;5036685;28;20252;-60
2022/08/19 06:14:29;;;;;;;9.48;6.80;;;;;;;23.98;45.91;94751.00;5037118;28;20224;-60
2022/08/19 06:16:55;;;;;;;8.63;7.78;;;;;;;24.05;46.20;94753.53;5039185;28;20198;-60
2022/08/19 06:19:23;;;;;;;11.60;7.10;;;;;;;24.07;45.99;94752.22;5036042;28;20580;-60
2022/08/19 06:21:51;;;;;;;10.32;7.40;;;;;;;24.11;46.00;94757.91;5035111;28;20252;-61
2022/08/19 06:24:25;;;;;;;7.93;7.10;;;;;;;24.04;45.68;94758.09;5034868;28;20236;-60
2022/08/19 06:26:53;;;;;;;10.45;6.97;;;;;;;24.06;45.87;94752.47;5038167;28;20239;-61
2022/08/19 06:29:23;;;;;;;9.80;7.40;;;;;;;24.20;44.88;94751.91;5045268;28;20213;-61
2022/08/19 06:31:52;;;;;;;7.60;6.97;;;;;;;24.35;44.81;94753.22;5037548;28;20233;-60
2022/08/19 06:34:18;;;;;;;8.13;7.03;;;;;;;24.37;44.30;94751.91;5048033;28;20233;-61
2022/08/19 06:36:50;;;;;;;7.70;6.60;;;;;;;24.41;44.15;94758.44;5039353;28;20312;-62
2022/08/19 06:39:18;;;;;;;10.23;8.55;;;;;;;24.56;44.44;94749.00;5031141;28;20225;-62
2022/08/19 06:41:48;;;;;;;8.52;7.75;;;;;;;24.76;44.12;94748.53;5038003;28;20256;-61
2022/08/19 06:44:14;;;;;;;8.48;7.68;;;;;;;24.71;44.22;94751.13;5045367;28;20209;-63
2022/08/19 06:46:41;;;;;;;8.60;6.97;;;;;;;24.78;45.60;94757.13;5037831;28;20221;-61
2022/08/19 06:49:09;;;;;;;8.43;7.55;;;;;;;24.88;44.06;94749.22;5036310;28;20252;-60
2022/08/19 06:51:35;;;;;;;8.32;7.40;;;;;;;24.87;44.42;94748.41;5042564;28;20755;-61
2022/08/19 06:54:02;;;;;;;8.43;7.35;;;;;;;24.98;44.36;94749.34;5042704;28;20222;-61
2022/08/19 06:56:33;;;;;;;10.30;7.32;;;;;;;25.05;44.45;94754.56;5039427;28;20221;-61
2022/08/19 06:59:07;;;;;;;12.00;8.23;;;;;;;24.93;44.58;94748.47;5033285;28;20208;-61
2022/08/19 07:01:39;;;;;;;9.73;7.63;;;;;;;24.98;45.27;94751.25;5043979;28;20222;-60
2022/08/19 07:04:08;;;;;;;10.15;7.70;;;;;;;25.15;44.92;94751.19;5034257;28;20225;-62
2022/08/19 07:06:34;;;;;;;8.88;7.60;;;;;;;25.26;44.74;94758.34;5035324;28;20240;-61
2022/08/19 07:08:59;;;;;;;13.70;8.63;;;;;;;25.28;44.65;94759.72;5038774;28;20217;-61
2022/08/19 07:11:25;;;;;;;9.10;8.13;;;;;;;25.35;44.29;94766.84;5039318;28;20212;-61
2022/08/19 07:13:51;;;;;;;14.88;10.10;;;;;;;25.48;44.01;94761.88;5040381;28;20198;-62
2022/08/19 07:16:19;;;;;;;8.63;7.70;;;;;;;25.25;44.50;94760.25;5036473;28;20232;-62
2022/08/19 07:18:49;;;;;;;8.35;7.53;;;;;;;25.36;44.28;94753.09;5042009;28;20250;-61
2022/08/19 07:21:22;;;;;;;11.85;7.80;;;;;;;25.48;44.15;94756.50;5038470;28;20650;-61
2022/08/19 07:23:49;;;;;;;13.75;8.13;;;;;;;25.66;43.78;94766.13;5037080;28;20232;-62
2022/08/19 07:26:21;;;;;;;10.60;7.57;;;;;;;25.80;44.13;94758.47;5039292;28;20237;-61
2022/08/19 07:28:47;;;;;;;10.50;7.50;;;;;;;25.68;43.50;94757.78;5042325;28;20241;-61
2022/08/19 07:31:17;;;;;;;8.00;7.20;;;;;;;25.74;43.54;94754.06;5041652;28;20221;-61
2022/08/19 07:33:44;;;;;;;13.40;7.85;;;;;;;25.69;42.70;94754.84;5036903;28;20225;-60
2022/08/19 07:36:12;;;;;;;13.00;8.48;;;;;;;25.75;42.57;94756.53;5045226;28;20316;-61
2022/08/19 07:38:40;;;;;;;10.30;8.20;;;;;;;25.88;42.43;94749.16;5034828;28;20222;-60
2022/08/19 07:41:07;;;;;;;10.55;9.35;;;;;;;25.98;43.81;94756.50;5039981;28;20236;-60
2022/08/19 07:43:32;;;;;;;12.48;8.13;;;;;;;26.05;41.77;94755.25;5037783;28;20229;-60
2022/08/19 07:45:58;;;;;;;12.88;7.55;;;;;;;26.08;41.58;94753.91;5038433;28;20244;-61
2022/08/19 07:48:28;;;;;;;8.00;7.22;;;;;;;26.21;41.80;94747.31;5040456;28;20244;-60
2022/08/19 07:51:03;;;;;;;8.88;6.85;;;;;;;26.24;41.82;94749.47;5037903;28;20225;-61
2022/08/19 07:53:32;;;;;;;8.10;6.93;;;;;;;26.37;41.62;94754.44;5039197;28;20216;-60
2022/08/19 07:56:01;;;;;;;9.70;7.82;;;;;;;26.41;40.82;94760.97;5037675;28;20206;-60
2022/08/19 07:58:27;;;;;;;9.18;7.03;;;;;;;26.50;40.42;94753.22;5037810;28;20222;-60
2022/08/19 08:00:53;;;;;;;11.32;7.45;;;;;;;26.55;40.27;94747.91;5043318;28;20308;-61
2022/08/19 08:09:10;;;;;;;12.77;7.63;;;;;;;26.60;41.93;94762.22;5039382;28;20317;-61
2022/08/19 08:11:34;;;;;;;11.82;7.63;;;;;;;26.72;41.31;94751.25;5035043;28;20204;-61
2022/08/19 08:14:00;;;;;;;11.10;8.10;;;;;;;26.74;40.59;94749.09;5035982;28;20201;-61
2022/08/19 08:16:29;;;;;;;10.05;7.30;;;;;;;26.86;41.11;94751.59;5036760;28;20309;-61
2022/08/19 08:18:55;;;;;;;14.10;7.22;;;;;;;26.80;40.52;94747.25;5040192;28;20226;-62
2022/08/19 08:21:20;;;;;;;10.55;7.15;;;;;;;26.99;39.32;94742.22;5036243;28;20220;-61
2022/08/19 08:23:46;;;;;;;10.43;7.38;;;;;;;27.09;39.99;94745.00;5036528;28;20226;-60
2022/08/19 08:26:12;;;;;;;10.10;6.75;;;;;;;27.22;38.74;94730.25;5035347;28;20226;-60
2022/08/19 08:28:38;;;;;;;7.40;6.53;;;;;;;27.26;38.91;94737.56;5036740;28;20232;-61
2022/08/19 08:31:04;;;;;;;10.35;6.88;;;;;;;27.22;40.28;94733.75;5035330;28;20221;-60
2022/08/19 08:33:30;;;;;;;8.25;6.28;;;;;;;27.24;39.01;94730.81;5034477;28;20218;-60
2022/08/19 08:35:56;;;;;;;11.60;6.57;;;;;;;27.32;38.67;94732.16;5034613;28;20720;-60
2022/08/19 08:38:21;;;;;;;8.35;7.07;;;;;;;27.53;37.78;94736.56;5041804;28;20201;-60
2022/08/19 08:40:54;;;;;;;9.02;6.32;;;;;;;27.61;37.17;94737.94;5038417;28;20776;-60
2022/08/19 08:43:30;;;;;;;10.27;6.68;;;;;;;27.56;39.94;94741.47;5042452;28;20229;-60
2022/08/19 08:46:16;;;;;;;11.35;6.25;;;;;;;27.58;40.74;94739.28;5031147;28;20245;-61
2022/08/19 08:49:00;;;;;;;9.48;6.57;;;;;;;27.84;38.70;94728.59;5028922;28;20313;-60
2022/08/19 08:51:35;;;;;;;9.65;6.22;;;;;;;27.89;38.23;94729.41;5038086;28;20280;-60
2022/08/19 08:54:08;;;;;;;7.20;6.45;;;;;;;27.86;39.56;94729.16;5044590;28;20266;-60
2022/08/19 08:56:33;;;;;;;7.80;6.50;;;;;;;27.78;40.30;94721.53;5037435;28;20571;-59
2022/08/19 08:59:08;;;;;;;8.27;6.20;;;;;;;27.77;42.56;94726.09;5034567;28;20223;-60
2022/08/19 09:01:34;;;;;;;10.38;9.48;;;;;;;27.80;43.06;94722.94;5041421;28;20221;-59
2022/08/19 09:03:59;;;;;;;9.85;7.82;;;;;;;27.85;41.79;94720.25;5034378;28;20236;-60
2022/08/19 09:06:46;;;;;;;8.90;6.05;;;;;;;28.10;36.00;94714.03;5034557;28;20226;-60
2022/08/19 09:09:49;;;;;;;9.18;6.32;;;;;;;28.09;37.58;94709.72;5049677;28;20217;-59
2022/08/19 09:12:45;;;;;;;6.70;5.60;;;;;;;28.12;40.08;94701.09;4969346;28;20647;-60
2022/08/19 09:15:14;;;;;;;7.03;6.03;;;;;;;28.15;38.18;94702.44;4967625;28;20575;-60
2022/08/19 09:17:39;;;;;;;6.50;5.95;;;;;;;28.35;36.19;94705.13;4949415;28;20232;-61
2022/08/19 09:20:17;;;;;;;6.40;5.80;;;;;;;28.41;36.89;94703.22;4949241;28;20757;-61
2022/08/19 09:22:46;;;;;;;6.40;5.82;;;;;;;28.53;36.07;94701.09;4959057;28;20280;-59
2022/08/19 09:25:15;;;;;;;6.05;5.45;;;;;;;28.54;33.71;94693.78;4946682;28;20637;-60
2022/08/19 09:27:42;;;;;;;5.82;3.80;;;;;;;28.79;29.27;94698.38;4948757;28;20286;-59
2022/08/19 09:30:12;;;;;;;4.57;4.00;;;;;;;28.84;28.86;94695.63;4951973;28;20291;-60
2022/08/19 09:32:42;;;;;;;5.97;5.47;;;;;;;28.82;34.24;94695.09;4947888;28;20267;-59
2022/08/19 09:35:07;;;;;;;4.95;4.55;;;;;;;28.87;33.70;94683.44;4960464;28;20215;-60
2022/08/19 09:37:33;;;;;;;5.50;5.00;;;;;;;29.04;31.21;94686.69;4945719;28;20295;-60
2022/08/19 09:39:58;;;;;;;4.60;4.28;;;;;;;29.12;31.60;94682.59;4945061;28;20243;-61
2022/08/19 09:42:24;;;;;;;6.38;4.90;;;;;;;29.28;29.06;94675.22;4944766;28;20229;-59
2022/08/19 09:44:49;;;;;;;7.68;5.10;;;;;;;29.39;30.09;94680.31;4946093;28;20322;-59
2022/08/19 09:47:15;;;;;;;5.45;4.70;;;;;;;29.47;30.94;94678.91;4970984;28;20213;-61
2022/08/19 09:49:40;;;;;;;5.53;4.75;;;;;;;29.58;30.84;94682.38;5038915;28;20202;-61
2022/08/19 09:52:09;;;;;;;4.60;4.18;;;;;;;29.69;30.46;94675.84;5035748;28;20380;-61
2022/08/19 09:54:34;;;;;;;6.55;4.43;;;;;;;29.68;30.73;94685.06;5031435;28;20226;-60
2022/08/19 09:57:00;;;;;;;4.22;3.92;;;;;;;29.72;30.79;94675.28;5039957;28;20232;-59
2022/08/19 09:59:27;;;;;;;7.43;4.05;;;;;;;29.82;27.49;94669.00;5037558;28;20206;-61
2022/08/19 10:01:52;;;;;;;5.13;4.68;;;;;;;29.99;29.29;94665.88;5037208;28;20202;-61
2022/08/19 10:04:18;;;;;;;5.63;5.10;;;;;;;30.11;29.75;94667.16;5040735;28;20264;-62
2022/08/19 10:06:43;;;;;;;5.22;4.75;;;;;;;30.17;28.19;94658.97;5037320;28;20222;-62
2022/08/19 10:09:10;;;;;;;5.40;4.30;;;;;;;30.26;28.02;94658.13;5035889;28;20236;-63
2022/08/19 10:11:39;;;;;;;7.07;4.32;;;;;;;30.34;28.76;94654.00;5033765;28;20301;-59
2022/08/19 10:14:05;;;;;;;6.47;4.88;;;;;;;30.40;28.48;94661.00;5030138;28;20221;-60
2022/08/19 10:16:31;;;;;;;5.78;4.80;;;;;;;30.32;28.27;94658.91;5031211;28;20224;-59
2022/08/19 10:18:57;;;;;;;5.32;4.82;;;;;;;30.35;29.38;94657.50;5038454;28;20255;-60
2022/08/19 10:21:28;;;;;;;6.22;4.95;;;;;;;30.43;28.27;94648.75;5036334;28;20221;-59
2022/08/19 10:23:57;;;;;;;4.72;4.22;;;;;;;30.61;26.35;94644.50;5041551;28;20228;-59
2022/08/19 10:26:28;;;;;;;5.32;4.40;;;;;;;30.70;26.59;94646.31;5034042;28;20324;-58
2022/08/19 10:28:55;;;;;;;5.75;5.25;;;;;;;30.78;27.80;94647.59;5034965;28;20241;-59
2022/08/19 10:31:29;;;;;;;8.85;7.53;;;;;;;30.95;26.40;94647.16;5034539;28;20257;-59
2022/08/19 10:33:57;;;;;;;5.55;4.40;;;;;;;30.99;27.09;94635.44;5032367;28;20222;-60
2022/08/19 10:36:28;;;;;;;4.85;4.38;;;;;;;31.11;26.94;94640.44;5033041;28;20221;-61
2022/08/19 10:38:58;;;;;;;4.75;4.35;;;;;;;31.18;26.26;94632.75;5039260;28;20228;-60
2022/08/19 10:41:26;;;;;;;5.40;4.90;;;;;;;31.23;26.31;94642.75;5034561;28;20242;-60
2022/08/19 10:43:54;;;;;;;6.40;4.28;;;;;;;31.33;26.49;94634.47;5031941;28;20353;-62
2022/08/19 10:46:21;;;;;;;4.65;4.22;;;;;;;31.42;25.51;94640.91;5032195;28;20221;-61
2022/08/19 10:48:46;;;;;;;7.25;4.65;;;;;;;31.52;24.60;94637.25;5034558;28;20228;-60
2022/08/19 10:54:17;;;;;;;6.95;4.18;;;;;;;31.74;26.60;94630.41;4985420;28;20228;-60
2022/08/19 10:56:51;;;;;;;6.72;4.68;;;;;;;31.77;26.06;94632.53;4974372;28;20230;-60
2022/08/19 10:59:27;;;;;;;5.18;4.75;;;;;;;31.74;24.97;94630.41;4984113;28;20260;-60
2022/08/19 11:01:54;;;;;;;5.10;4.70;;;;;;;31.77;25.83;94627.09;4974043;28;20343;-60
2022/08/19 11:04:20;;;;;;;6.07;4.88;;;;;;;31.95;24.87;94628.22;4985389;28;20381;-60
2022/08/19 11:06:47;;;;;;;5.18;4.65;;;;;;;32.01;24.60;94619.69;4979115;28;20228;-60
2022/08/19 11:09:20;;;;;;;5.07;4.45;;;;;;;32.08;24.77;94622.03;4985081;28;20254;-61
2022/08/19 11:11:47;;;;;;;5.10;4.63;;;;;;;32.11;24.86;94624.16;4986222;28;20231;-62
2022/08/19 11:14:16;;;;;;;4.88;4.47;;;;;;;32.25;24.27;94619.56;4974793;28;20196;-61
2022/08/19 11:16:42;;;;;;;4.95;4.47;;;;;;;32.36;24.80;94622.09;4987731;28;20646;-60
2022/08/19 11:19:11;;;;;;;5.70;4.88;;;;;;;32.63;25.10;94613.22;4983838;28;20317;-61
2022/08/19 11:21:41;;;;;;;4.70;4.22;;;;;;;32.79;24.05;94613.72;4964403;28;20227;-61
2022/08/19 11:24:10;;;;;;;5.10;4.60;;;;;;;32.77;23.56;94619.47;4989390;28;20231;-60
2022/08/19 11:26:38;;;;;;;5.50;5.03;;;;;;;32.81;23.49;94612.31;5035046;28;20288;-60
2022/08/19 11:29:05;;;;;;;5.45;4.78;;;;;;;32.87;23.30;94619.28;5045014;28;20213;-61
2022/08/19 11:31:35;;;;;;;5.32;4.82;;;;;;;32.89;23.87;94613.53;5038351;28;20221;-60
2022/08/19 11:34:03;;;;;;;5.88;4.93;;;;;;;32.94;24.15;94614.25;5039164;28;20222;-60
2022/08/19 11:36:31;;;;;;;4.70;4.25;;;;;;;33.09;24.37;94610.44;5039706;28;20236;-61
2022/08/19 11:38:57;;;;;;;6.93;4.60;;;;;;;33.13;24.05;94608.72;5036304;28;20221;-61
2022/08/19 11:41:23;;;;;;;4.68;4.30;;;;;;;33.18;23.67;94599.63;5037080;28;20233;-62
2022/08/19 11:43:52;;;;;;;5.15;4.65;;;;;;;33.27;23.70;94597.00;5035495;28;20411;-61
2022/08/19 11:46:18;;;;;;;5.07;4.35;;;;;;;33.44;23.49;94599.91;5035829;28;20221;-61
2022/08/19 11:48:44;;;;;;;6.28;4.97;;;;;;;33.65;23.54;94600.25;5042277;28;20248;-61
2022/08/19 11:51:18;;;;;;;5.68;4.72;;;;;;;33.70;23.18;94594.69;5041579;28;20331;-59